This is the latest recevied weather packets stored in our database for station/object KE6JJJ-1. If no packets are shown the sender has not sent any weather packets the latest 10 day(s).
| Time | Temp. | Humidity | Pressure | Rain* | Wind** | Luminosity | Snow |
|---|---|---|---|---|---|---|---|
| 1777608304 | 13.33° C | 84% | 1014 hPa | 0 mm | - | 0 W/m² | - |
| 1777606503 | 13.33° C | 83% | 1013.8 hPa | 0 mm | - | 0 W/m² | - |
| 1777604704 | 13.33° C | 82% | 1013.6 hPa | 0 mm | - | 0 W/m² | - |
| 1777602903 | 13.89° C | 80% | 1013.3 hPa | 0 mm | - | 21 W/m² | - |
| 1777601123 | 14.44° C | 79% | 1013.3 hPa | 0 mm | - | 116 W/m² | - |
| 1777599303 | 15.56° C | 76% | 1013.4 hPa | 0 mm | - | 232 W/m² | - |
| 1777597512 | 15.56° C | 77% | 1013.7 hPa | 0 mm | - | 346 W/m² | - |
| 1777595703 | 15.56° C | 76% | 1013.5 hPa | 0 mm | - | 404 W/m² | - |
| 1777593912 | 16.11° C | 74% | 1013.4 hPa | 0 mm | - | 496 W/m² | - |
| 1777592103 | 16.67° C | 74% | 1013.3 hPa | 0 mm | - | 575 W/m² | - |
| 1777590303 | 17.22° C | 71% | 1013.5 hPa | 0 mm | - | 664 W/m² | - |
| 1777588503 | 17.78° C | 70% | 1013.8 hPa | 0 mm | - | 742 W/m² | - |
| 1777586706 | 17.78° C | 71% | 1014.2 hPa | 0 mm | - | 800 W/m² | - |
| 1777584904 | 17.78° C | 71% | 1014.4 hPa | 0 mm | - | 847 W/m² | - |
| 1777485911 | 18.89° C | 67% | 1018.7 hPa | 0 mm | - | 796 W/m² | - |
| 1777484104 | 18.33° C | 68% | 1018.8 hPa | 0 mm | - | 737 W/m² | - |
| 1777482303 | 17.78° C | 69% | 1018.8 hPa | 0 mm | - | 663 W/m² | - |
| 1777480503 | 17.22° C | 72% | 1018.9 hPa | 0 mm | - | 580 W/m² | - |
| 1777476903 | 15.56° C | 81% | 1019.1 hPa | 0 mm | - | 387 W/m² | - |
| 1777475117 | 15° C | 87% | 1018.9 hPa | 0 mm | - | 283 W/m² | - |
| 1777473303 | 13.33° C | 88% | 1018.7 hPa | 0 mm | - | 49 W/m² | - |
| 1777471512 | 11.67° C | 88% | 1018.4 hPa | 0 mm | - | 37 W/m² | - |
| 1777469703 | 11.67° C | 87% | 1018.2 hPa | 0 mm | - | 21 W/m² | - |
| 1777467903 | 11.67° C | 87% | 1017.9 hPa | 0 mm | - | 0 W/m² | - |
| 1777466103 | 12.22° C | 87% | 1018 hPa | 0 mm | - | 0 W/m² | - |
* Rain latest hour (hover to see other rain measurements)
** Current wind speed in m/s (hover to see current wind gust speed)